sensor_id;sensor_type;location;lat;lon;timestamp;pressure;altitude;pressure_sealevel;temperature;humidity
10706;BME280;5404;42.656;23.336;2022-10-04T00:03:00;95053.25;;;11.20;100.00
10706;BME280;5404;42.656;23.336;2022-10-04T00:05:28;95056.66;;;11.26;100.00
10706;BME280;5404;42.656;23.336;2022-10-04T00:07:58;95051.69;;;11.19;100.00
10706;BME280;5404;42.656;23.336;2022-10-04T00:10:32;95053.84;;;11.17;100.00
10706;BME280;5404;42.656;23.336;2022-10-04T00:13:00;95063.94;;;11.20;100.00
10706;BME280;5404;42.656;23.336;2022-10-04T00:15:32;95076.16;;;11.21;100.00
10706;BME280;5404;42.656;23.336;2022-10-04T00:18:04;95065.88;;;11.15;100.00
10706;BME280;5404;42.656;23.336;2022-10-04T00:23:26;95048.31;;;11.14;100.00
10706;BME280;5404;42.656;23.336;2022-10-04T00:26:04;95045.94;;;11.12;100.00
10706;BME280;5404;42.656;23.336;2022-10-04T00:33:38;95039.94;;;11.20;100.00
10706;BME280;5404;42.656;23.336;2022-10-04T00:41:39;95014.91;;;11.16;100.00
10706;BME280;5404;42.656;23.336;2022-10-04T00:44:13;95021.34;;;11.15;100.00
10706;BME280;5404;42.656;23.336;2022-10-04T00:46:44;95012.13;;;11.08;100.00
10706;BME280;5404;42.656;23.336;2022-10-04T00:49:13;95012.50;;;11.01;100.00
10706;BME280;5404;42.656;23.336;2022-10-04T00:51:45;94999.78;;;10.98;100.00
10706;BME280;5404;42.656;23.336;2022-10-04T00:57:00;95002.00;;;10.91;100.00
10706;BME280;5404;42.656;23.336;2022-10-04T01:02:15;95002.00;;;10.91;100.00
10706;BME280;5404;42.656;23.336;2022-10-04T01:04:50;95004.97;;;10.90;100.00
10706;BME280;5404;42.656;23.336;2022-10-04T01:07:28;94998.03;;;10.89;100.00
10706;BME280;5404;42.656;23.336;2022-10-04T01:09:58;94999.44;;;10.86;100.00
10706;BME280;5404;42.656;23.336;2022-10-04T01:13:19;95017.06;;;10.82;100.00
10706;BME280;5404;42.656;23.336;2022-10-04T01:16:02;95006.19;;;10.79;100.00
10706;BME280;5404;42.656;23.336;2022-10-04T01:18:33;95007.59;;;10.76;100.00
10706;BME280;5404;42.656;23.336;2022-10-04T01:23:50;95011.53;;;10.79;100.00
10706;BME280;5404;42.656;23.336;2022-10-04T01:31:24;94999.50;;;10.81;100.00
10706;BME280;5404;42.656;23.336;2022-10-04T01:33:51;94987.13;;;10.72;100.00
10706;BME280;5404;42.656;23.336;2022-10-04T01:36:16;94991.47;;;10.68;100.00
10706;BME280;5404;42.656;23.336;2022-10-04T01:38:42;95001.25;;;10.72;100.00
10706;BME280;5404;42.656;23.336;2022-10-04T01:41:09;95002.41;;;10.66;100.00
10706;BME280;5404;42.656;23.336;2022-10-04T01:43:38;94987.56;;;10.60;100.00
10706;BME280;5404;42.656;23.336;2022-10-04T01:46:12;94998.94;;;10.66;100.00
10706;BME280;5404;42.656;23.336;2022-10-04T01:48:43;94996.56;;;10.64;100.00
10706;BME280;5404;42.656;23.336;2022-10-04T01:51:19;94980.25;;;10.52;100.00
10706;BME280;5404;42.656;23.336;2022-10-04T01:53:57;94992.19;;;10.54;100.00
10706;BME280;5404;42.656;23.336;2022-10-04T01:56:38;94992.69;;;10.56;100.00
10706;BME280;5404;42.656;23.336;2022-10-04T01:59:14;94997.00;;;10.52;100.00
10706;BME280;5404;42.656;23.336;2022-10-04T02:04:31;94995.50;;;10.46;100.00
10706;BME280;5404;42.656;23.336;2022-10-04T02:06:59;95007.47;;;10.49;100.00
10706;BME280;5404;42.656;23.336;2022-10-04T02:09:32;95009.13;;;10.45;100.00
10706;BME280;5404;42.656;23.336;2022-10-04T02:12:00;95019.34;;;10.38;100.00
10706;BME280;5404;42.656;23.336;2022-10-04T02:14:28;95022.72;;;10.43;100.00
10706;BME280;5404;42.656;23.336;2022-10-04T02:16:59;95034.44;;;10.42;100.00
10706;BME280;5404;42.656;23.336;2022-10-04T02:19:32;95030.50;;;10.40;100.00
10706;BME280;5404;42.656;23.336;2022-10-04T02:22:04;95020.69;;;10.35;100.00
10706;BME280;5404;42.656;23.336;2022-10-04T02:24:37;95027.09;;;10.34;100.00
10706;BME280;5404;42.656;23.336;2022-10-04T02:27:03;95030.72;;;10.43;100.00
10706;BME280;5404;42.656;23.336;2022-10-04T02:29:30;95030.50;;;10.40;100.00
10706;BME280;5404;42.656;23.336;2022-10-04T02:31:57;95031.56;;;10.39;100.00
10706;BME280;5404;42.656;23.336;2022-10-04T02:34:41;95029.97;;;10.38;100.00
10706;BME280;5404;42.656;23.336;2022-10-04T02:37:07;95035.88;;;10.35;100.00
10706;BME280;5404;42.656;23.336;2022-10-04T02:39:37;95040.63;;;10.38;100.00
10706;BME280;5404;42.656;23.336;2022-10-04T02:42:13;95036.66;;;10.35;100.00
10706;BME280;5404;42.656;23.336;2022-10-04T02:44:44;95042.78;;;10.36;100.00
10706;BME280;5404;42.656;23.336;2022-10-04T02:47:19;95055.88;;;10.32;100.00
10706;BME280;5404;42.656;23.336;2022-10-04T02:50:40;95057.50;;;10.33;100.00
10706;BME280;5404;42.656;23.336;2022-10-04T02:52:49;95058.56;;;10.32;100.00
10706;BME280;5404;42.656;23.336;2022-10-04T02:55:29;95055.66;;;10.29;100.00
10706;BME280;5404;42.656;23.336;2022-10-04T02:57:56;95070.75;;;10.38;100.00
10706;BME280;5404;42.656;23.336;2022-10-04T03:00:30;95069.66;;;10.39;100.00
10706;BME280;5404;42.656;23.336;2022-10-04T03:03:16;95067.22;;;10.43;100.00
10706;BME280;5404;42.656;23.336;2022-10-04T03:05:59;95081.94;;;10.35;100.00
10706;BME280;5404;42.656;23.336;2022-10-04T03:08:27;95073.94;;;10.35;100.00
10706;BME280;5404;42.656;23.336;2022-10-04T03:10:55;95059.19;;;10.24;100.00
10706;BME280;5404;42.656;23.336;2022-10-04T03:13:23;95076.97;;;10.29;100.00
10706;BME280;5404;42.656;23.336;2022-10-04T03:15:48;95081.22;;;10.30;100.00
10706;BME280;5404;42.656;23.336;2022-10-04T03:18:15;95074.44;;;10.19;100.00
10706;BME280;5404;42.656;23.336;2022-10-04T03:20:42;95062.22;;;10.18;100.00
10706;BME280;5404;42.656;23.336;2022-10-04T03:23:08;95072.63;;;10.14;100.00
10706;BME280;5404;42.656;23.336;2022-10-04T03:26:03;95072.63;;;10.14;100.00
10706;BME280;5404;42.656;23.336;2022-10-04T03:28:35;95082.47;;;10.14;100.00
10706;BME280;5404;42.656;23.336;2022-10-04T03:31:01;95070.31;;;10.03;100.00
10706;BME280;5404;42.656;23.336;2022-10-04T03:33:27;95077.47;;;10.07;100.00
10706;BME280;5404;42.656;23.336;2022-10-04T03:35:59;95079.13;;;10.03;100.00
10706;BME280;5404;42.656;23.336;2022-10-04T03:38:25;95086.81;;;10.05;100.00
10706;BME280;5404;42.656;23.336;2022-10-04T03:40:57;95092.94;;;10.05;100.00
10706;BME280;5404;42.656;23.336;2022-10-04T03:43:27;95090.34;;;10.00;100.00
10706;BME280;5404;42.656;23.336;2022-10-04T03:45:54;95088.91;;;10.08;100.00
10706;BME280;5404;42.656;23.336;2022-10-04T03:48:51;95095.06;;;10.08;100.00
10706;BME280;5404;42.656;23.336;2022-10-04T03:51:25;95102.22;;;10.13;100.00
10706;BME280;5404;42.656;23.336;2022-10-04T03:53:53;95104.31;;;10.16;100.00
10706;BME280;5404;42.656;23.336;2022-10-04T03:56:32;95107.47;;;10.18;100.00
10706;BME280;5404;42.656;23.336;2022-10-04T03:59:03;95105.59;;;10.18;100.00
10706;BME280;5404;42.656;23.336;2022-10-04T04:01:57;95094.22;;;10.08;100.00
10706;BME280;5404;42.656;23.336;2022-10-04T04:04:47;95108.31;;;10.13;100.00
10706;BME280;5404;42.656;23.336;2022-10-04T04:07:30;95099.56;;;10.13;100.00
10706;BME280;5404;42.656;23.336;2022-10-04T04:10:08;95103.50;;;10.15;100.00
10706;BME280;5404;42.656;23.336;2022-10-04T04:12:39;95094.47;;;10.11;100.00
10706;BME280;5404;42.656;23.336;2022-10-04T04:15:10;95112.81;;;10.18;100.00
10706;BME280;5404;42.656;23.336;2022-10-04T04:17:43;95108.81;;;10.15;100.00
10706;BME280;5404;42.656;23.336;2022-10-04T04:25:27;95111.66;;;10.24;100.00
10706;BME280;5404;42.656;23.336;2022-10-04T04:28:01;95119.63;;;10.24;100.00
10706;BME280;5404;42.656;23.336;2022-10-04T04:30:30;95124.50;;;10.17;100.00
10706;BME280;5404;42.656;23.336;2022-10-04T04:33:04;95124.50;;;10.17;100.00
10706;BME280;5404;42.656;23.336;2022-10-04T04:35:32;95128.31;;;10.11;100.00
10706;BME280;5404;42.656;23.336;2022-10-04T04:38:03;95131.00;;;10.11;100.00
10706;BME280;5404;42.656;23.336;2022-10-04T04:40:28;95124.50;;;10.17;100.00
10706;BME280;5404;42.656;23.336;2022-10-04T04:42:57;95128.50;;;10.19;100.00
10706;BME280;5404;42.656;23.336;2022-10-04T04:45:26;95129.22;;;10.25;100.00
10706;BME280;5404;42.656;23.336;2022-10-04T04:47:56;95126.56;;;10.25;100.00
10706;BME280;5404;42.656;23.336;2022-10-04T04:50:27;95129.50;;;10.23;100.00
10706;BME280;5404;42.656;23.336;2022-10-04T04:55:32;95141.41;;;10.31;100.00
10706;BME280;5404;42.656;23.336;2022-10-04T04:57:59;95140.53;;;10.35;100.00
10706;BME280;5404;42.656;23.336;2022-10-04T05:00:30;95144.06;;;10.31;100.00
10706;BME280;5404;42.656;23.336;2022-10-04T05:02:59;95122.59;;;10.22;100.00
10706;BME280;5404;42.656;23.336;2022-10-04T05:05:34;95144.06;;;10.31;100.00
10706;BME280;5404;42.656;23.336;2022-10-04T05:08:14;95144.50;;;10.38;100.00
10706;BME280;5404;42.656;23.336;2022-10-04T05:13:12;95137.25;;;10.43;100.00
10706;BME280;5404;42.656;23.336;2022-10-04T05:15:39;95129.66;;;10.55;100.00
10706;BME280;5404;42.656;23.336;2022-10-04T05:18:30;95140.41;;;10.69;100.00
10706;BME280;5404;42.656;23.336;2022-10-04T05:21:22;95139.03;;;10.72;100.00
10706;BME280;5404;42.656;23.336;2022-10-04T05:23:50;95141.34;;;10.78;100.00
10706;BME280;5404;42.656;23.336;2022-10-04T05:26:23;95123.97;;;10.81;100.00
10706;BME280;5404;42.656;23.336;2022-10-04T05:28:50;95138.03;;;10.86;100.00
10706;BME280;5404;42.656;23.336;2022-10-04T05:33:58;95132.84;;;10.76;100.00
10706;BME280;5404;42.656;23.336;2022-10-04T05:39:10;95155.81;;;10.72;100.00
10706;BME280;5404;42.656;23.336;2022-10-04T05:41:50;95164.31;;;10.74;100.00
10706;BME280;5404;42.656;23.336;2022-10-04T05:47:17;95164.75;;;10.81;100.00
10706;BME280;5404;42.656;23.336;2022-10-04T05:49:49;95166.28;;;10.87;100.00
10706;BME280;5404;42.656;23.336;2022-10-04T05:52:27;95170.97;;;10.95;100.00
10706;BME280;5404;42.656;23.336;2022-10-04T05:57:50;95146.84;;;10.87;100.00
10706;BME280;5404;42.656;23.336;2022-10-04T06:06:18;95187.56;;;11.11;100.00
10706;BME280;5404;42.656;23.336;2022-10-04T06:17:50;95176.09;;;11.29;100.00
10706;BME280;5404;42.656;23.336;2022-10-04T06:20:46;95189.34;;;11.52;100.00
10706;BME280;5404;42.656;23.336;2022-10-04T06:23:18;95192.88;;;11.66;100.00
10706;BME280;5404;42.656;23.336;2022-10-04T06:26:03;95195.19;;;11.54;100.00
10706;BME280;5404;42.656;23.336;2022-10-04T06:28:51;95190.56;;;11.60;100.00
10706;BME280;5404;42.656;23.336;2022-10-04T06:31:26;95195.38;;;11.77;100.00
10706;BME280;5404;42.656;23.336;2022-10-04T06:46:00;95190.19;;;12.44;100.00
10706;BME280;5404;42.656;23.336;2022-10-04T06:54:16;95201.59;;;12.63;100.00
10706;BME280;5404;42.656;23.336;2022-10-04T06:56:57;95195.81;;;12.97;100.00
10706;BME280;5404;42.656;23.336;2022-10-04T07:02:30;95190.38;;;13.02;100.00
10706;BME280;5404;42.656;23.336;2022-10-04T07:05:24;95197.31;;;12.89;100.00
10706;BME280;5404;42.656;23.336;2022-10-04T07:08:11;95183.75;;;12.45;100.00
10706;BME280;5404;42.656;23.336;2022-10-04T07:11:23;95201.09;;;13.02;100.00
10706;BME280;5404;42.656;23.336;2022-10-04T07:16:26;95196.75;;;12.79;100.00
10706;BME280;5404;42.656;23.336;2022-10-04T07:27:29;95216.44;;;12.69;100.00
10706;BME280;5404;42.656;23.336;2022-10-04T07:30:12;95215.16;;;12.80;100.00
10706;BME280;5404;42.656;23.336;2022-10-04T07:32:44;95218.34;;;12.69;100.00
10706;BME280;5404;42.656;23.336;2022-10-04T07:37:52;95214.03;;;12.95;100.00
10706;BME280;5404;42.656;23.336;2022-10-04T07:40:30;95207.13;;;13.08;100.00
10706;BME280;5404;42.656;23.336;2022-10-04T07:43:05;95219.63;;;13.12;100.00
10706;BME280;5404;42.656;23.336;2022-10-04T07:45:38;95229.63;;;13.20;100.00
10706;BME280;5404;42.656;23.336;2022-10-04T07:53:47;95220.19;;;13.36;100.00
10706;BME280;5404;42.656;23.336;2022-10-04T07:56:25;95227.25;;;13.05;100.00
10706;BME280;5404;42.656;23.336;2022-10-04T08:02:33;95229.69;;;13.29;100.00
10706;BME280;5404;42.656;23.336;2022-10-04T08:10:32;95213.34;;;13.30;100.00
10706;BME280;5404;42.656;23.336;2022-10-04T08:13:09;95227.25;;;13.54;100.00
10706;BME280;5404;42.656;23.336;2022-10-04T08:15:41;95226.59;;;13.35;100.00
10706;BME280;5404;42.656;23.336;2022-10-04T08:21:08;95226.56;;;13.49;100.00
10706;BME280;5404;42.656;23.336;2022-10-04T08:23:48;95224.53;;;13.68;100.00
10706;BME280;5404;42.656;23.336;2022-10-04T08:35:35;95219.38;;;14.77;100.00
10706;BME280;5404;42.656;23.336;2022-10-04T08:59:31;95198.69;;;16.10;100.00
10706;BME280;5404;42.656;23.336;2022-10-04T09:02:30;95201.44;;;15.59;100.00
10706;BME280;5404;42.656;23.336;2022-10-04T09:34:07;95194.09;;;24.54;53.36
10706;BME280;5404;42.656;23.336;2022-10-04T09:40:32;95212.97;;;23.05;55.68
10706;BME280;5404;42.656;23.336;2022-10-04T09:43:26;95212.59;;;20.45;74.78
10706;BME280;5404;42.656;23.336;2022-10-04T09:55:41;95208.31;;;18.24;100.00
10706;BME280;5404;42.656;23.336;2022-10-04T10:04:33;95206.13;;;23.90;61.48
10706;BME280;5404;42.656;23.336;2022-10-04T10:19:15;95206.06;;;23.86;54.09
10706;BME280;5404;42.656;23.336;2022-10-04T10:21:53;95214.31;;;22.32;62.67
10706;BME280;5404;42.656;23.336;2022-10-04T10:24:45;95207.88;;;21.17;71.30
10706;BME280;5404;42.656;23.336;2022-10-04T10:40:54;95209.50;;;25.12;57.08
10706;BME280;5404;42.656;23.336;2022-10-04T10:43:49;95214.84;;;27.21;45.53
10706;BME280;5404;42.656;23.336;2022-10-04T10:49:19;95215.78;;;28.71;39.32
10706;BME280;5404;42.656;23.336;2022-10-04T10:58:19;95221.13;;;20.91;67.85
10706;BME280;5404;42.656;23.336;2022-10-04T11:18:11;95232.78;;;16.70;100.00
10706;BME280;5404;42.656;23.336;2022-10-04T11:26:42;95226.19;;;16.24;100.00
10706;BME280;5404;42.656;23.336;2022-10-04T11:42:52;95221.44;;;21.17;82.05
10706;BME280;5404;42.656;23.336;2022-10-04T11:54:37;95227.28;;;20.44;88.39
10706;BME280;5404;42.656;23.336;2022-10-04T11:57:23;95226.47;;;20.44;84.02
10706;BME280;5404;42.656;23.336;2022-10-04T12:02:53;95227.06;;;19.22;90.98
10706;BME280;5404;42.656;23.336;2022-10-04T12:05:44;95224.59;;;19.05;92.71
10706;BME280;5404;42.656;23.336;2022-10-04T12:19:30;95223.66;;;17.50;100.00
10706;BME280;5404;42.656;23.336;2022-10-04T12:22:24;95219.88;;;17.21;100.00
10706;BME280;5404;42.656;23.336;2022-10-04T12:33:51;95204.84;;;16.83;100.00
10706;BME280;5404;42.656;23.336;2022-10-04T12:39:36;95240.78;;;16.87;100.00
10706;BME280;5404;42.656;23.336;2022-10-04T12:47:56;95233.50;;;16.79;100.00
10706;BME280;5404;42.656;23.336;2022-10-04T12:50:42;95237.94;;;16.83;100.00
10706;BME280;5404;42.656;23.336;2022-10-04T12:58:24;95237.16;;;16.83;100.00
10706;BME280;5404;42.656;23.336;2022-10-04T13:01:03;95234.66;;;17.07;100.00
10706;BME280;5404;42.656;23.336;2022-10-04T13:06:09;95239.41;;;16.72;100.00
10706;BME280;5404;42.656;23.336;2022-10-04T13:11:30;95226.81;;;16.39;100.00
10706;BME280;5404;42.656;23.336;2022-10-04T13:19:32;95218.91;;;16.51;100.00
10706;BME280;5404;42.656;23.336;2022-10-04T13:30:37;95221.72;;;16.46;100.00
10706;BME280;5404;42.656;23.336;2022-10-04T13:36:10;95220.81;;;16.24;100.00
10706;BME280;5404;42.656;23.336;2022-10-04T13:53:50;95240.09;;;16.52;100.00
10706;BME280;5404;42.656;23.336;2022-10-04T14:07:35;95239.84;;;15.94;100.00
10706;BME280;5404;42.656;23.336;2022-10-04T14:39:22;95280.66;;;15.31;100.00
10706;BME280;5404;42.656;23.336;2022-10-04T14:45:12;95286.72;;;15.06;100.00
10706;BME280;5404;42.656;23.336;2022-10-04T15:01:26;95312.97;;;14.26;100.00
10706;BME280;5404;42.656;23.336;2022-10-04T15:07:17;95328.75;;;14.14;100.00
10706;BME280;5404;42.656;23.336;2022-10-04T15:09:53;95336.13;;;14.08;100.00
10706;BME280;5404;42.656;23.336;2022-10-04T15:15:19;95343.16;;;14.04;100.00
10706;BME280;5404;42.656;23.336;2022-10-04T15:20:48;95351.84;;;13.87;100.00
10706;BME280;5404;42.656;23.336;2022-10-04T15:23:28;95344.41;;;13.84;100.00
10706;BME280;5404;42.656;23.336;2022-10-04T15:26:00;95352.44;;;13.84;100.00
10706;BME280;5404;42.656;23.336;2022-10-04T15:37:13;95368.63;;;13.66;100.00
10706;BME280;5404;42.656;23.336;2022-10-04T15:42:37;95371.22;;;13.57;100.00
10706;BME280;5404;42.656;23.336;2022-10-04T15:47:58;95377.78;;;13.38;100.00
10706;BME280;5404;42.656;23.336;2022-10-04T16:07:36;95404.31;;;12.75;100.00
10706;BME280;5404;42.656;23.336;2022-10-04T16:13:21;95407.94;;;12.65;100.00
10706;BME280;5404;42.656;23.336;2022-10-04T16:16:30;95420.59;;;12.60;100.00
10706;BME280;5404;42.656;23.336;2022-10-04T16:19:50;95420.09;;;12.58;100.00
10706;BME280;5404;42.656;23.336;2022-10-04T16:22:11;95420.75;;;12.50;100.00
10706;BME280;5404;42.656;23.336;2022-10-04T16:27:43;95427.25;;;12.44;100.00
10706;BME280;5404;42.656;23.336;2022-10-04T16:33:31;95439.63;;;12.40;100.00
10706;BME280;5404;42.656;23.336;2022-10-04T16:36:08;95436.81;;;12.31;100.00
10706;BME280;5404;42.656;23.336;2022-10-04T16:38:46;95432.69;;;12.20;100.00
10706;BME280;5404;42.656;23.336;2022-10-04T16:41:35;95445.16;;;12.25;100.00
10706;BME280;5404;42.656;23.336;2022-10-04T16:44:22;95444.47;;;12.19;100.00
10706;BME280;5404;42.656;23.336;2022-10-04T16:47:00;95457.75;;;12.24;100.00
10706;BME280;5404;42.656;23.336;2022-10-04T16:49:36;95452.13;;;12.26;100.00
10706;BME280;5404;42.656;23.336;2022-10-04T16:52:25;95461.13;;;12.30;100.00
10706;BME280;5404;42.656;23.336;2022-10-04T17:01:24;95475.81;;;12.32;100.00
10706;BME280;5404;42.656;23.336;2022-10-04T17:06:57;95479.06;;;12.29;100.00
10706;BME280;5404;42.656;23.336;2022-10-04T17:09:54;95482.50;;;12.30;100.00
10706;BME280;5404;42.656;23.336;2022-10-04T17:12:50;95491.63;;;12.29;100.00
10706;BME280;5404;42.656;23.336;2022-10-04T17:18:10;95500.59;;;12.38;100.00
10706;BME280;5404;42.656;23.336;2022-10-04T17:26:40;95501.72;;;12.32;100.00
10706;BME280;5404;42.656;23.336;2022-10-04T17:29:24;95509.81;;;12.27;100.00
10706;BME280;5404;42.656;23.336;2022-10-04T17:31:58;95495.25;;;12.14;100.00
10706;BME280;5404;42.656;23.336;2022-10-04T17:48:16;95527.91;;;12.11;100.00
10706;BME280;5404;42.656;23.336;2022-10-04T17:54:14;95531.50;;;12.02;100.00
10706;BME280;5404;42.656;23.336;2022-10-04T17:59:37;95534.75;;;11.99;100.00
10706;BME280;5404;42.656;23.336;2022-10-04T18:02:16;95547.53;;;12.02;100.00
10706;BME280;5404;42.656;23.336;2022-10-04T18:04:55;95552.56;;;12.03;100.00
10706;BME280;5404;42.656;23.336;2022-10-04T18:07:31;95561.88;;;12.06;100.00
10706;BME280;5404;42.656;23.336;2022-10-04T18:10:02;95547.59;;;11.97;100.00
10706;BME280;5404;42.656;23.336;2022-10-04T18:12:43;95567.50;;;12.04;100.00
10706;BME280;5404;42.656;23.336;2022-10-04T18:15:32;95569.41;;;12.04;100.00
10706;BME280;5404;42.656;23.336;2022-10-04T18:18:19;95551.53;;;11.99;100.00
10706;BME280;5404;42.656;23.336;2022-10-04T18:23:29;95576.84;;;12.07;100.00
10706;BME280;5404;42.656;23.336;2022-10-04T18:25:59;95578.38;;;12.13;100.00
10706;BME280;5404;42.656;23.336;2022-10-04T18:28:25;95578.19;;;12.04;100.00
10706;BME280;5404;42.656;23.336;2022-10-04T18:30:55;95590.53;;;12.00;100.00
10706;BME280;5404;42.656;23.336;2022-10-04T18:36:25;95588.16;;;11.99;100.00
10706;BME280;5404;42.656;23.336;2022-10-04T18:41:52;95591.09;;;11.97;100.00
10706;BME280;5404;42.656;23.336;2022-10-04T18:44:24;95587.06;;;12.00;100.00
10706;BME280;5404;42.656;23.336;2022-10-04T18:46:56;95577.25;;;11.95;100.00
10706;BME280;5404;42.656;23.336;2022-10-04T18:49:45;95575.69;;;11.89;100.00
10706;BME280;5404;42.656;23.336;2022-10-04T19:00:18;95591.06;;;11.73;100.00
10706;BME280;5404;42.656;23.336;2022-10-04T19:06:23;95598.63;;;11.66;100.00
10706;BME280;5404;42.656;23.336;2022-10-04T19:16:53;95611.50;;;11.54;100.00
10706;BME280;5404;42.656;23.336;2022-10-04T19:27:17;95618.50;;;11.45;100.00
10706;BME280;5404;42.656;23.336;2022-10-04T19:40:51;95627.16;;;11.32;100.00
10706;BME280;5404;42.656;23.336;2022-10-04T19:43:36;95631.22;;;11.25;100.00
10706;BME280;5404;42.656;23.336;2022-10-04T19:46:32;95630.44;;;11.24;100.00
10706;BME280;5404;42.656;23.336;2022-10-04T19:49:02;95638.72;;;11.23;100.00
10706;BME280;5404;42.656;23.336;2022-10-04T19:51:48;95632.09;;;11.15;100.00
10706;BME280;5404;42.656;23.336;2022-10-04T19:54:20;95637.91;;;11.22;100.00
10706;BME280;5404;42.656;23.336;2022-10-04T19:56:52;95630.81;;;11.08;100.00
10706;BME280;5404;42.656;23.336;2022-10-04T19:59:41;95633.19;;;11.14;100.00
10706;BME280;5404;42.656;23.336;2022-10-04T20:02:11;95636.66;;;11.10;100.00
10706;BME280;5404;42.656;23.336;2022-10-04T20:04:37;95635.84;;;11.09;100.00
10706;BME280;5404;42.656;23.336;2022-10-04T20:12:43;95630.69;;;10.84;100.00
10706;BME280;5404;42.656;23.336;2022-10-04T20:17:39;95642.41;;;10.88;100.00
10706;BME280;5404;42.656;23.336;2022-10-04T20:20:05;95659.47;;;10.87;100.00
10706;BME280;5404;42.656;23.336;2022-10-04T20:22:52;95661.03;;;10.93;100.00
10706;BME280;5404;42.656;23.336;2022-10-04T20:30:53;95664.03;;;10.82;100.00
10706;BME280;5404;42.656;23.336;2022-10-04T20:36:10;95669.91;;;10.79;100.00
10706;BME280;5404;42.656;23.336;2022-10-04T20:38:59;95670.16;;;10.82;100.00
10706;BME280;5404;42.656;23.336;2022-10-04T20:44:54;95676.03;;;10.79;100.00
10706;BME280;5404;42.656;23.336;2022-10-04T20:50:00;95684.31;;;10.78;100.00
10706;BME280;5404;42.656;23.336;2022-10-04T20:52:29;95683.75;;;10.81;100.00
10706;BME280;5404;42.656;23.336;2022-10-04T20:54:55;95664.91;;;10.67;100.00
10706;BME280;5404;42.656;23.336;2022-10-04T20:57:23;95680.03;;;10.77;100.00
10706;BME280;5404;42.656;23.336;2022-10-04T20:59:50;95686.16;;;10.82;100.00
10706;BME280;5404;42.656;23.336;2022-10-04T21:02:21;95698.69;;;10.77;100.00
10706;BME280;5404;42.656;23.336;2022-10-04T21:04:48;95680.63;;;10.69;100.00
10706;BME280;5404;42.656;23.336;2022-10-04T21:07:25;95698.16;;;10.80;100.00
10706;BME280;5404;42.656;23.336;2022-10-04T21:09:51;95702.19;;;10.72;100.00
10706;BME280;5404;42.656;23.336;2022-10-04T21:12:35;95703.28;;;10.66;100.00
10706;BME280;5404;42.656;23.336;2022-10-04T21:20:49;95704.88;;;10.67;100.00
10706;BME280;5404;42.656;23.336;2022-10-04T21:23:16;95705.97;;;10.66;100.00
10706;BME280;5404;42.656;23.336;2022-10-04T21:25:42;95706.47;;;10.63;100.00
10706;BME280;5404;42.656;23.336;2022-10-04T21:28:29;95714.22;;;10.70;100.00
10706;BME280;5404;42.656;23.336;2022-10-04T21:30:55;95701.16;;;10.58;100.00
10706;BME280;5404;42.656;23.336;2022-10-04T21:33:20;95713.41;;;10.64;100.00
10706;BME280;5404;42.656;23.336;2022-10-04T21:35:50;95713.41;;;10.64;100.00
10706;BME280;5404;42.656;23.336;2022-10-04T21:38:17;95723.00;;;10.65;100.00
10706;BME280;5404;42.656;23.336;2022-10-04T21:40:43;95701.97;;;10.58;100.00
10706;BME280;5404;42.656;23.336;2022-10-04T21:43:08;95692.16;;;10.54;100.00
10706;BME280;5404;42.656;23.336;2022-10-04T21:45:34;95701.69;;;10.60;100.00
10706;BME280;5404;42.656;23.336;2022-10-04T21:47:59;95709.69;;;10.60;100.00
10706;BME280;5404;42.656;23.336;2022-10-04T21:50:25;95689.22;;;10.50;100.00
10706;BME280;5404;42.656;23.336;2022-10-04T21:52:50;95714.72;;;10.67;100.00
10706;BME280;5404;42.656;23.336;2022-10-04T21:55:16;95705.97;;;10.66;100.00
10706;BME280;5404;42.656;23.336;2022-10-04T21:57:41;95706.47;;;10.63;100.00
10706;BME280;5404;42.656;23.336;2022-10-04T22:00:07;95709.16;;;10.58;100.00
10706;BME280;5404;42.656;23.336;2022-10-04T22:02:33;95707.59;;;10.52;100.00
10706;BME280;5404;42.656;23.336;2022-10-04T22:04:58;95704.91;;;10.57;100.00
10706;BME280;5404;42.656;23.336;2022-10-04T22:07:24;95714.78;;;10.56;100.00
10706;BME280;5404;42.656;23.336;2022-10-04T22:09:49;95698.53;;;10.53;100.00
10706;BME280;5404;42.656;23.336;2022-10-04T22:12:16;95720.38;;;10.55;100.00
10706;BME280;5404;42.656;23.336;2022-10-04T22:14:41;95713.97;;;10.56;100.00
10706;BME280;5404;42.656;23.336;2022-10-04T22:17:07;95725.44;;;10.56;100.00
10706;BME280;5404;42.656;23.336;2022-10-04T22:19:34;95722.78;;;10.51;100.00
10706;BME280;5404;42.656;23.336;2022-10-04T22:22:00;95728.34;;;10.60;100.00
10706;BME280;5404;42.656;23.336;2022-10-04T22:24:25;95727.56;;;10.54;100.00
10706;BME280;5404;42.656;23.336;2022-10-04T22:26:53;95737.44;;;10.54;100.00
10706;BME280;5404;42.656;23.336;2022-10-04T22:29:29;95741.72;;;10.50;100.00
10706;BME280;5404;42.656;23.336;2022-10-04T22:31:59;95723.34;;;10.43;100.00
10706;BME280;5404;42.656;23.336;2022-10-04T22:34:25;95737.97;;;10.51;100.00
10706;BME280;5404;42.656;23.336;2022-10-04T22:36:50;95736.91;;;10.57;100.00
10706;BME280;5404;42.656;23.336;2022-10-04T22:39:19;95740.09;;;10.59;100.00
10706;BME280;5404;42.656;23.336;2022-10-04T22:41:54;95740.63;;;10.56;100.00
10706;BME280;5404;42.656;23.336;2022-10-04T22:46:48;95745.44;;;10.49;100.00
10706;BME280;5404;42.656;23.336;2022-10-04T22:49:30;95751.81;;;10.53;100.00
10706;BME280;5404;42.656;23.336;2022-10-04T22:52:12;95748.63;;;10.46;100.00
10706;BME280;5404;42.656;23.336;2022-10-04T22:54:46;95760.91;;;10.47;100.00
10706;BME280;5404;42.656;23.336;2022-10-04T22:57:25;95758.25;;;10.47;100.00
10706;BME280;5404;42.656;23.336;2022-10-04T22:59:51;95745.19;;;10.35;100.00
10706;BME280;5404;42.656;23.336;2022-10-04T23:04:45;95762.25;;;10.39;100.00
10706;BME280;5404;42.656;23.336;2022-10-04T23:07:19;95765.72;;;10.35;100.00